createdAt,value
2023-04-30T00:00:40.024Z,50.53
2023-04-30T00:03:08.296Z,47.83
2023-04-30T00:05:37.418Z,48.87
2023-04-30T00:08:06.986Z,51.87
2023-04-30T00:10:35.109Z,50.60
2023-04-30T00:13:03.130Z,51.73
2023-04-30T00:15:31.211Z,50.93
2023-04-30T00:17:59.271Z,49.90
2023-04-30T00:20:27.360Z,49.90
2023-04-30T00:22:55.784Z,48.63
2023-04-30T00:25:25.647Z,49.43
2023-04-30T00:27:53.891Z,49.20
2023-04-30T00:30:21.899Z,48.90
2023-04-30T00:32:50.048Z,47.60
2023-04-30T00:35:18.681Z,50.00
2023-04-30T00:37:47.661Z,46.80
2023-04-30T00:40:15.742Z,49.60
2023-04-30T00:42:45.140Z,50.63
2023-04-30T00:45:13.243Z,50.03
2023-04-30T00:47:41.804Z,50.90
2023-04-30T00:50:11.218Z,50.23
2023-04-30T00:52:40.489Z,50.00
2023-04-30T00:55:09.368Z,49.77
2023-04-30T00:57:37.457Z,51.83
2023-04-30T01:00:11.275Z,49.70
2023-04-30T01:02:39.796Z,49.87
2023-04-30T01:05:08.925Z,49.00
2023-04-30T01:07:38.707Z,49.23
2023-04-30T01:10:08.144Z,50.33
2023-04-30T01:12:39.742Z,49.17
2023-04-30T01:15:15.282Z,50.97
2023-04-30T01:17:49.789Z,52.47
2023-04-30T01:20:18.319Z,53.00
2023-04-30T01:22:50.416Z,52.83
2023-04-30T01:25:46.151Z,51.77
2023-04-30T01:28:17.793Z,51.63
2023-04-30T01:30:46.558Z,52.60
2023-04-30T01:33:15.097Z,51.73
2023-04-30T01:35:55.377Z,49.67
2023-04-30T01:38:32.910Z,52.23
2023-04-30T01:41:09.880Z,49.07
2023-04-30T01:43:46.650Z,49.63
2023-04-30T01:46:21.326Z,51.47
2023-04-30T01:48:56.015Z,49.37
2023-04-30T01:51:31.214Z,50.33
2023-04-30T01:54:04.105Z,50.67
2023-04-30T01:56:34.441Z,50.63
2023-04-30T01:59:04.643Z,50.07
2023-04-30T02:01:33.997Z,48.80
2023-04-30T02:04:02.294Z,51.17
2023-04-30T02:06:31.354Z,49.03
2023-04-30T02:09:03.510Z,46.97
2023-04-30T02:11:31.940Z,48.60
2023-04-30T02:14:00.111Z,48.50
2023-04-30T02:16:29.757Z,46.60
2023-04-30T02:18:57.909Z,49.63
2023-04-30T02:21:27.294Z,49.33
2023-04-30T02:23:55.583Z,49.50
2023-04-30T02:26:23.572Z,48.07
2023-04-30T02:28:51.569Z,48.33
2023-04-30T02:31:19.665Z,47.57
2023-04-30T02:33:49.251Z,44.93
2023-04-30T02:36:17.285Z,48.80
2023-04-30T02:38:45.420Z,47.47
2023-04-30T02:41:13.784Z,46.70
2023-04-30T02:43:41.747Z,48.67
2023-04-30T02:46:09.890Z,46.27
2023-04-30T02:48:38.042Z,45.63
2023-04-30T02:51:07.673Z,47.60
2023-04-30T02:53:35.760Z,48.70
2023-04-30T02:56:03.758Z,48.53
2023-04-30T02:58:31.715Z,46.07
2023-04-30T03:01:00.471Z,46.13
2023-04-30T03:03:29.063Z,46.13
2023-04-30T03:05:59.474Z,46.90
2023-04-30T03:08:28.851Z,45.27
2023-04-30T03:10:56.973Z,48.70
2023-04-30T03:13:26.050Z,49.80
2023-04-30T03:15:59.135Z,46.83
2023-04-30T03:18:28.004Z,48.17
2023-04-30T03:20:56.102Z,45.50
2023-04-30T03:23:24.369Z,46.00
2023-04-30T03:25:53.982Z,46.27
2023-04-30T03:28:22.579Z,45.37
2023-04-30T03:30:50.721Z,44.90
2023-04-30T03:33:18.747Z,45.00
2023-04-30T03:35:47.030Z,43.97
2023-04-30T03:38:15.216Z,44.63
2023-04-30T03:40:43.462Z,44.90
2023-04-30T03:43:13.261Z,43.43
2023-04-30T03:45:41.271Z,44.23
2023-04-30T03:48:09.601Z,45.07
2023-04-30T03:50:37.747Z,42.87
2023-04-30T03:53:06.313Z,43.53
2023-04-30T03:55:34.439Z,43.00
2023-04-30T03:58:02.796Z,44.77
2023-04-30T04:00:32.290Z,41.60
2023-04-30T04:03:00.789Z,44.80
2023-04-30T04:05:29.896Z,44.03
2023-04-30T04:07:58.075Z,44.47
2023-04-30T04:10:26.201Z,43.43
2023-04-30T04:12:54.164Z,44.97
2023-04-30T04:15:22.222Z,44.57
2023-04-30T04:17:51.938Z,43.53
2023-04-30T04:20:20.259Z,42.47
2023-04-30T04:22:48.251Z,45.57
2023-04-30T04:25:18.139Z,43.20
2023-04-30T04:27:46.255Z,43.97
2023-04-30T04:30:14.867Z,46.87
2023-04-30T04:32:48.333Z,43.93
2023-04-30T04:35:19.335Z,43.77
2023-04-30T04:37:47.645Z,43.43
2023-04-30T04:40:15.805Z,42.80
2023-04-30T04:42:43.941Z,42.90
2023-04-30T04:45:15.841Z,44.43
2023-04-30T04:47:44.096Z,42.77
2023-04-30T04:50:13.019Z,45.77
2023-04-30T04:52:42.402Z,42.27
2023-04-30T04:55:12.122Z,45.00
2023-04-30T04:57:40.684Z,44.73
2023-04-30T05:00:11.724Z,44.43
2023-04-30T05:02:40.219Z,44.37
2023-04-30T05:05:09.187Z,44.20
2023-04-30T05:07:37.263Z,43.07
2023-04-30T05:10:07.940Z,41.60
2023-04-30T05:12:35.924Z,44.47
2023-04-30T05:15:04.673Z,42.63
2023-04-30T05:17:32.799Z,42.93
2023-04-30T05:20:00.967Z,42.73
2023-04-30T05:22:29.041Z,44.23
2023-04-30T05:24:57.003Z,45.07
2023-04-30T05:27:27.278Z,45.47
2023-04-30T05:29:55.500Z,45.90
2023-04-30T05:32:23.870Z,44.40
2023-04-30T05:34:52.277Z,45.77
2023-04-30T05:37:22.692Z,45.73
2023-04-30T05:39:50.866Z,48.47
2023-04-30T05:42:18.959Z,46.83
2023-04-30T05:44:49.317Z,47.37
2023-04-30T05:47:17.472Z,50.23
2023-04-30T05:49:45.522Z,49.27
2023-04-30T05:52:15.327Z,49.90
2023-04-30T05:54:43.843Z,48.23
2023-04-30T05:57:11.991Z,46.53
2023-04-30T05:59:40.064Z,48.33
2023-04-30T06:02:10.112Z,48.70
2023-04-30T06:04:38.214Z,45.53
2023-04-30T06:07:06.318Z,41.33
2023-04-30T06:09:34.273Z,41.40
2023-04-30T06:12:02.511Z,36.97
2023-04-30T06:14:30.610Z,35.40
2023-04-30T06:16:58.931Z,37.70
2023-04-30T06:19:28.430Z,35.07
2023-04-30T06:21:56.384Z,38.97
2023-04-30T06:24:27.518Z,37.57
2023-04-30T06:26:55.578Z,37.07
2023-04-30T06:29:24.438Z,38.57
2023-04-30T06:31:52.921Z,38.83
2023-04-30T06:34:21.331Z,38.77
2023-04-30T06:36:50.877Z,40.07
2023-04-30T06:39:19.136Z,39.97
2023-04-30T06:41:47.807Z,40.73
2023-04-30T06:44:17.123Z,44.83
2023-04-30T06:46:45.251Z,43.37
2023-04-30T06:49:13.316Z,44.07
2023-04-30T06:51:42.937Z,42.93
2023-04-30T06:54:12.387Z,41.90
2023-04-30T06:56:40.491Z,42.43
2023-04-30T06:59:08.722Z,41.90
2023-04-30T07:01:36.995Z,43.77
2023-04-30T07:04:05.080Z,41.00
2023-04-30T07:06:33.918Z,42.27
2023-04-30T07:09:02.037Z,41.47
2023-04-30T07:11:31.664Z,39.33
2023-04-30T07:13:59.691Z,43.40
2023-04-30T07:16:28.039Z,41.63
2023-04-30T07:18:56.178Z,40.63
2023-04-30T07:21:25.539Z,40.13
2023-04-30T07:23:53.656Z,37.50
2023-04-30T07:26:21.894Z,39.37
2023-04-30T07:28:51.399Z,39.57
2023-04-30T07:31:20.242Z,39.13
2023-04-30T07:33:50.340Z,38.27
2023-04-30T07:36:18.466Z,37.80
2023-04-30T07:38:46.672Z,37.93
2023-04-30T07:41:14.918Z,37.23
2023-04-30T07:43:43.035Z,36.93
2023-04-30T07:46:12.527Z,36.43
2023-04-30T07:48:40.636Z,35.53
2023-04-30T07:51:08.685Z,34.60
2023-04-30T07:53:36.772Z,34.97
2023-04-30T07:56:05.159Z,32.83
2023-04-30T07:58:33.284Z,34.30
2023-04-30T08:01:01.860Z,33.80
2023-04-30T08:03:31.404Z,33.97
2023-04-30T08:05:59.524Z,31.50
2023-04-30T08:08:27.550Z,32.43
2023-04-30T08:10:55.579Z,33.00
2023-04-30T08:13:23.604Z,33.80
2023-04-30T08:15:51.648Z,31.33
2023-04-30T08:18:19.850Z,30.67
2023-04-30T08:20:49.568Z,29.77
2023-04-30T08:23:17.936Z,29.50
2023-04-30T08:25:46.126Z,28.27
2023-04-30T08:28:14.257Z,27.73
2023-04-30T08:30:42.364Z,26.00
2023-04-30T08:33:10.654Z,25.20
2023-04-30T08:35:39.070Z,24.00
2023-04-30T08:38:08.504Z,24.40
2023-04-30T08:40:50.093Z,24.83
2023-04-30T08:43:20.231Z,21.50
2023-04-30T08:45:48.792Z,18.57
2023-04-30T08:48:17.217Z,20.23
2023-04-30T08:50:45.763Z,20.43
2023-04-30T08:53:17.321Z,22.07
2023-04-30T08:55:45.845Z,20.80
2023-04-30T08:58:13.973Z,19.27
2023-04-30T09:00:42.560Z,18.37
2023-04-30T09:03:10.944Z,17.63
2023-04-30T09:05:39.419Z,18.27
2023-04-30T09:08:08.847Z,17.67
2023-04-30T09:10:39.047Z,15.83
2023-04-30T09:13:08.952Z,13.47
2023-04-30T09:15:38.850Z,14.73
2023-04-30T09:18:11.270Z,14.83
2023-04-30T09:20:39.956Z,14.80
2023-04-30T09:23:09.272Z,13.17
2023-04-30T09:25:42.928Z,13.00
2023-04-30T09:28:11.880Z,10.87
2023-04-30T09:30:40.426Z,8.83
2023-04-30T09:33:11.496Z,7.70
2023-04-30T09:35:41.659Z,7.33
2023-04-30T09:38:26.824Z,7.40
2023-04-30T09:40:57.141Z,6.17
2023-04-30T09:43:25.334Z,4.70
2023-04-30T09:45:56.437Z,4.50
2023-04-30T09:48:25.192Z,4.10
2023-04-30T09:50:53.325Z,4.27
2023-04-30T09:53:40.154Z,4.27
2023-04-30T09:56:10.544Z,3.37
2023-04-30T09:58:39.549Z,2.83
2023-04-30T10:01:11.346Z,2.87
2023-04-30T10:03:40.930Z,2.57
2023-04-30T10:06:09.916Z,1.10
2023-04-30T10:08:42.122Z,1.00
2023-04-30T10:11:16.581Z,0.77
2023-04-30T10:13:48.642Z,1.10
2023-04-30T10:16:24.268Z,0.97
2023-04-30T10:18:53.860Z,0.70
2023-04-30T10:21:24.225Z,1.10
2023-04-30T10:23:52.649Z,1.80
2023-04-30T10:26:22.127Z,2.40
2023-04-30T10:28:51.494Z,1.80
2023-04-30T10:31:23.511Z,1.40
2023-04-30T10:34:00.167Z,1.00
2023-04-30T10:36:34.515Z,1.27
2023-04-30T10:39:03.608Z,1.20
2023-04-30T10:41:33.118Z,1.30
2023-04-30T10:44:05.268Z,1.10
2023-04-30T10:46:35.842Z,1.13
2023-04-30T10:49:04.145Z,1.20
2023-04-30T10:51:49.041Z,1.07
2023-04-30T10:54:18.836Z,1.30
2023-04-30T10:56:48.624Z,1.00
2023-04-30T10:59:16.725Z,1.10
2023-04-30T11:01:58.803Z,1.40
2023-04-30T11:04:27.249Z,1.10
2023-04-30T11:07:13.426Z,1.23
2023-04-30T11:09:43.051Z,1.23
2023-04-30T11:12:14.158Z,1.20
2023-04-30T11:14:44.024Z,1.00
2023-04-30T11:17:13.506Z,1.10
2023-04-30T11:19:49.385Z,1.10
2023-04-30T11:22:18.906Z,1.10
2023-04-30T11:24:54.542Z,1.20
2023-04-30T11:27:25.170Z,1.20
2023-04-30T11:29:53.939Z,1.10
2023-04-30T11:32:23.087Z,1.00
2023-04-30T11:34:51.840Z,0.90
2023-04-30T11:37:21.230Z,1.20
2023-04-30T11:39:50.063Z,0.80
2023-04-30T11:42:19.262Z,0.80
2023-04-30T11:44:48.898Z,0.97
2023-04-30T11:47:17.397Z,1.00
2023-04-30T11:49:45.510Z,1.00
2023-04-30T11:52:14.598Z,1.00
2023-04-30T11:54:42.658Z,0.90
2023-04-30T11:57:10.733Z,0.80
2023-04-30T11:59:42.361Z,0.80
2023-04-30T12:02:16.196Z,0.87
2023-04-30T12:04:47.224Z,0.90
2023-04-30T12:07:15.520Z,1.03
2023-04-30T12:09:56.562Z,1.00
2023-04-30T12:12:29.185Z,0.80
2023-04-30T12:14:57.302Z,1.20
2023-04-30T12:17:34.428Z,1.00
2023-04-30T12:20:02.664Z,0.80
2023-04-30T12:22:30.800Z,0.70
2023-04-30T12:25:00.644Z,1.10
2023-04-30T12:27:30.218Z,0.80
2023-04-30T12:29:58.229Z,0.70
2023-04-30T12:32:26.476Z,0.80
2023-04-30T12:35:01.551Z,0.60
2023-04-30T12:37:29.653Z,0.80
2023-04-30T12:39:57.910Z,0.83
2023-04-30T12:42:26.436Z,0.80
2023-04-30T12:44:54.506Z,0.57
2023-04-30T12:47:22.521Z,0.70
2023-04-30T12:49:51.903Z,0.70
2023-04-30T12:52:25.117Z,0.70
2023-04-30T12:54:55.471Z,0.80
2023-04-30T12:57:23.618Z,0.70
2023-04-30T12:59:59.715Z,0.70
2023-04-30T13:02:32.002Z,0.70
2023-04-30T13:05:00.581Z,0.70
2023-04-30T13:07:38.178Z,0.60
2023-04-30T13:10:07.370Z,0.50
2023-04-30T13:12:35.443Z,0.83
2023-04-30T13:15:04.008Z,0.80
2023-04-30T13:17:32.143Z,0.70
2023-04-30T13:20:00.179Z,0.50
2023-04-30T13:22:30.200Z,0.60
2023-04-30T13:24:58.330Z,0.57
2023-04-30T13:27:26.722Z,0.70
2023-04-30T13:29:54.879Z,0.80
2023-04-30T13:32:23.036Z,0.73
2023-04-30T13:34:52.245Z,0.60
2023-04-30T13:37:20.359Z,0.53
2023-04-30T13:39:52.945Z,0.73
2023-04-30T13:42:21.372Z,0.90
2023-04-30T13:44:50.021Z,0.90
2023-04-30T13:47:18.238Z,0.93
2023-04-30T13:49:46.362Z,0.80
2023-04-30T13:52:14.492Z,0.77
2023-04-30T13:54:42.501Z,1.07
2023-04-30T13:57:11.940Z,0.80
2023-04-30T13:59:39.970Z,1.27
2023-04-30T14:02:08.105Z,0.90
2023-04-30T14:04:36.141Z,0.87
2023-04-30T14:07:05.640Z,0.87
2023-04-30T14:09:33.754Z,0.77
2023-04-30T14:12:02.206Z,0.70
2023-04-30T14:14:31.610Z,0.90
2023-04-30T14:16:59.749Z,1.10
2023-04-30T14:19:27.932Z,0.97
2023-04-30T14:21:56.409Z,0.70
2023-04-30T14:24:24.507Z,0.70
2023-04-30T14:26:52.590Z,0.67
2023-04-30T14:29:26.978Z,0.90
2023-04-30T14:31:56.510Z,0.70
2023-04-30T14:34:24.562Z,0.87
2023-04-30T14:36:52.721Z,0.80
2023-04-30T14:39:20.761Z,0.70
2023-04-30T14:41:48.830Z,0.90
2023-04-30T14:44:16.878Z,0.80
2023-04-30T14:46:44.957Z,0.80
2023-04-30T14:49:14.585Z,0.70
2023-04-30T14:51:45.766Z,1.00
2023-04-30T14:54:14.307Z,0.80
2023-04-30T14:56:42.724Z,0.77
2023-04-30T14:59:11.184Z,0.60
2023-04-30T15:01:39.381Z,0.70
2023-04-30T15:04:07.638Z,0.70
2023-04-30T15:06:37.227Z,0.60
2023-04-30T15:09:06.467Z,0.67
2023-04-30T15:11:34.709Z,0.70
2023-04-30T15:14:02.966Z,0.70
2023-04-30T15:16:31.185Z,0.50
2023-04-30T15:19:00.150Z,0.70
2023-04-30T15:21:29.002Z,0.90
2023-04-30T15:23:58.528Z,0.60
2023-04-30T15:26:27.457Z,0.50
2023-04-30T15:28:56.334Z,0.53
2023-04-30T15:31:24.506Z,0.53
2023-04-30T15:33:52.722Z,0.50
2023-04-30T15:36:22.353Z,0.50
2023-04-30T15:38:50.611Z,0.90
2023-04-30T15:41:20.171Z,0.70
2023-04-30T15:43:48.386Z,0.63
2023-04-30T15:46:17.490Z,0.80
2023-04-30T15:48:45.604Z,0.50
2023-04-30T15:51:13.778Z,0.50
2023-04-30T15:53:41.960Z,0.60
2023-04-30T15:56:10.955Z,0.50
2023-04-30T15:58:40.715Z,0.67
2023-04-30T16:01:09.260Z,0.63
2023-04-30T16:03:37.793Z,0.50
2023-04-30T16:06:06.109Z,1.07
2023-04-30T16:08:34.225Z,0.90
2023-04-30T16:11:03.337Z,0.60
2023-04-30T16:13:31.505Z,0.70
2023-04-30T16:16:00.981Z,0.60
2023-04-30T16:18:29.935Z,0.70
2023-04-30T16:20:58.273Z,0.70
2023-04-30T16:23:26.419Z,0.70
2023-04-30T16:25:55.088Z,0.57
2023-04-30T16:28:23.609Z,0.80
2023-04-30T16:30:52.241Z,0.53
2023-04-30T16:33:23.349Z,0.60
2023-04-30T16:35:51.418Z,0.90
2023-04-30T16:38:20.517Z,0.70
2023-04-30T16:40:48.797Z,0.80
2023-04-30T16:43:17.009Z,0.80
2023-04-30T16:45:45.090Z,0.70
2023-04-30T16:48:13.776Z,0.83
2023-04-30T16:50:43.455Z,0.80
2023-04-30T16:53:11.507Z,0.57
2023-04-30T16:55:39.801Z,0.70
2023-04-30T16:58:07.835Z,0.80
2023-04-30T17:00:36.705Z,1.10
2023-04-30T17:03:05.577Z,0.90
2023-04-30T17:05:33.853Z,1.00
2023-04-30T17:08:03.392Z,1.37
2023-04-30T17:10:31.615Z,0.80
2023-04-30T17:13:03.967Z,0.93
2023-04-30T17:15:32.145Z,0.87
2023-04-30T17:18:00.351Z,1.00
2023-04-30T17:20:28.505Z,1.13
2023-04-30T17:22:57.019Z,0.90
2023-04-30T17:25:26.460Z,1.17
2023-04-30T17:27:58.329Z,1.27
2023-04-30T17:30:26.936Z,1.10
2023-04-30T17:32:55.140Z,0.93
2023-04-30T17:35:23.498Z,1.20
2023-04-30T17:37:51.622Z,1.20
2023-04-30T17:40:20.024Z,1.10
2023-04-30T17:42:51.554Z,1.30
2023-04-30T17:45:19.878Z,1.90
2023-04-30T17:47:48.208Z,1.47
2023-04-30T17:50:16.880Z,1.50
2023-04-30T17:52:45.191Z,1.40
2023-04-30T17:55:13.883Z,2.20
2023-04-30T17:57:42.924Z,1.37
2023-04-30T18:00:14.112Z,1.57
2023-04-30T18:02:43.572Z,1.50
2023-04-30T18:05:14.922Z,1.30
2023-04-30T18:07:43.148Z,1.50
2023-04-30T18:10:11.590Z,1.50
2023-04-30T18:12:40.109Z,1.63
2023-04-30T18:15:09.565Z,1.50
2023-04-30T18:17:39.738Z,1.53
2023-04-30T18:20:09.146Z,1.40
2023-04-30T18:22:43.816Z,1.73
2023-04-30T18:25:13.242Z,1.90
2023-04-30T18:27:42.097Z,2.50
2023-04-30T18:30:11.588Z,2.30
2023-04-30T18:32:41.875Z,2.10
2023-04-30T18:35:11.395Z,1.67
2023-04-30T18:37:40.329Z,1.70
2023-04-30T18:40:09.920Z,2.30
2023-04-30T18:42:38.718Z,2.50
2023-04-30T18:45:13.708Z,4.20
2023-04-30T18:47:43.400Z,4.73
2023-04-30T18:50:17.221Z,5.03
2023-04-30T18:52:46.518Z,4.57
2023-04-30T18:55:15.211Z,4.00
2023-04-30T18:57:43.603Z,4.47
2023-04-30T19:00:14.203Z,4.90
2023-04-30T19:02:44.407Z,8.30
2023-04-30T19:05:12.738Z,8.53
2023-04-30T19:07:41.008Z,8.10
2023-04-30T19:10:09.746Z,8.00
2023-04-30T19:12:38.352Z,7.17
2023-04-30T19:15:08.104Z,6.10
2023-04-30T19:17:36.575Z,4.47
2023-04-30T19:20:07.368Z,3.80
2023-04-30T19:22:36.170Z,2.63
2023-04-30T19:25:04.827Z,2.20
2023-04-30T19:27:33.222Z,1.83
2023-04-30T19:30:01.569Z,1.90
2023-04-30T19:32:29.841Z,1.60
2023-04-30T19:34:58.962Z,1.90
2023-04-30T19:37:32.337Z,1.87
2023-04-30T19:40:00.592Z,1.87
2023-04-30T19:42:30.219Z,1.50
2023-04-30T19:45:00.136Z,1.83
2023-04-30T19:47:29.301Z,1.60
2023-04-30T19:49:57.881Z,1.57
2023-04-30T19:52:34.526Z,1.60
2023-04-30T19:55:02.596Z,1.60
2023-04-30T19:57:34.949Z,1.80
2023-04-30T20:00:04.504Z,1.73
2023-04-30T20:02:35.544Z,1.90
2023-04-30T20:05:06.958Z,2.10
2023-04-30T20:07:37.062Z,1.93
2023-04-30T20:10:06.018Z,1.90
2023-04-30T20:12:34.205Z,1.90
2023-04-30T20:15:04.744Z,2.00
2023-04-30T20:17:33.919Z,2.03
2023-04-30T20:20:02.762Z,1.73
2023-04-30T20:22:31.280Z,2.00
2023-04-30T20:25:02.622Z,2.30
2023-04-30T20:27:30.841Z,1.90
2023-04-30T20:29:58.968Z,2.40
2023-04-30T20:32:27.107Z,2.83
2023-04-30T20:34:55.313Z,2.97
2023-04-30T20:37:23.810Z,3.03
2023-04-30T20:39:52.304Z,3.20
2023-04-30T20:42:22.030Z,4.30
2023-04-30T20:44:50.578Z,4.17
2023-04-30T20:47:18.751Z,4.70
2023-04-30T20:49:46.893Z,5.10
2023-04-30T20:52:15.321Z,5.53
2023-04-30T20:54:43.424Z,5.30
2023-04-30T20:57:11.387Z,5.57
2023-04-30T20:59:41.397Z,4.70
2023-04-30T21:02:10.327Z,4.60
2023-04-30T21:04:38.426Z,3.37
2023-04-30T21:07:06.797Z,3.10
2023-04-30T21:09:35.713Z,3.70
2023-04-30T21:12:05.122Z,8.70
2023-04-30T21:14:33.986Z,7.53
2023-04-30T21:17:03.449Z,10.97
2023-04-30T21:19:33.662Z,13.90
2023-04-30T21:22:01.779Z,17.10
2023-04-30T21:24:31.778Z,19.73
2023-04-30T21:27:00.228Z,20.53
2023-04-30T21:29:28.435Z,16.43
2023-04-30T21:31:57.058Z,12.30
2023-04-30T21:34:26.440Z,13.83
2023-04-30T21:36:54.429Z,9.30
2023-04-30T21:39:22.418Z,8.13
2023-04-30T21:41:50.516Z,8.60
2023-04-30T21:44:19.748Z,8.57
2023-04-30T21:46:47.964Z,6.03
2023-04-30T21:49:16.821Z,5.77
2023-04-30T21:51:46.260Z,4.60
2023-04-30T21:54:14.278Z,5.13
2023-04-30T21:56:42.311Z,4.27
2023-04-30T21:59:10.340Z,4.23
2023-04-30T22:01:38.398Z,4.40
2023-04-30T22:04:06.810Z,4.40
2023-04-30T22:06:35.311Z,4.63
2023-04-30T22:09:05.041Z,5.03
2023-04-30T22:11:33.101Z,6.00
2023-04-30T22:14:01.162Z,5.57
2023-04-30T22:16:29.310Z,5.73
2023-04-30T22:18:59.036Z,5.10
2023-04-30T22:21:27.341Z,4.90
2023-04-30T22:23:55.297Z,5.50
2023-04-30T22:26:25.512Z,6.10
2023-04-30T22:28:53.825Z,4.90
2023-04-30T22:31:21.899Z,6.60
2023-04-30T22:33:49.897Z,6.37
2023-04-30T22:36:18.180Z,6.40
2023-04-30T22:38:46.252Z,6.23
2023-04-30T22:41:14.222Z,5.50
2023-04-30T22:43:43.635Z,5.13
2023-04-30T22:46:11.842Z,5.17
2023-04-30T22:48:39.877Z,4.63
2023-04-30T22:51:08.180Z,3.73
2023-04-30T22:53:36.203Z,3.70
2023-04-30T22:56:04.478Z,3.07
2023-04-30T22:58:32.526Z,2.90
2023-04-30T23:01:02.016Z,2.97
2023-04-30T23:03:30.228Z,3.13
2023-04-30T23:06:00.163Z,3.00
2023-04-30T23:08:28.279Z,2.90
2023-04-30T23:10:56.232Z,2.50
2023-04-30T23:13:24.271Z,2.90
2023-04-30T23:15:52.322Z,2.47
2023-04-30T23:18:23.204Z,3.20
2023-04-30T23:20:51.456Z,2.60
2023-04-30T23:23:19.369Z,2.67
2023-04-30T23:25:47.545Z,3.13
2023-04-30T23:28:15.627Z,3.10
2023-04-30T23:30:45.082Z,3.07
2023-04-30T23:33:13.148Z,2.83
2023-04-30T23:35:44.026Z,3.10
2023-04-30T23:38:12.082Z,2.90
2023-04-30T23:40:40.165Z,3.13
2023-04-30T23:43:08.313Z,3.10
2023-04-30T23:45:36.248Z,3.40
2023-04-30T23:48:04.897Z,3.67
2023-04-30T23:50:32.880Z,3.83
2023-04-30T23:53:02.229Z,3.57
2023-04-30T23:55:30.153Z,3.67
2023-04-30T23:57:58.127Z,3.87
